Parnaiba, Parnaiba International Airport (SBPB)

NameParnaiba International Airport
CityParnaiba
CountryBrazil
ICAOSBPB
IATAPHB
Altitude7 m
CoordinatesGoogle Map
Live Air TrafficLiveATC.net
METARSBPB 172100Z 04007KT 9999 BKN017 28/21 Q1011
2019-01-17 21:00:00 Wind: North-Northeast (40°) 3.6 m/s - Visibility: > 10000 m - Temperature: 28 °C - Dew point: 21 °C - Humidity: 65.8% - Pressure: 1011 hPa
Statistics

The table below shows the detailed information of all flights to/from Parnaiba, Parnaiba International Airport (SBPB).